< < Back
Terminal Aerodrome Forecast


Current Version              Previous Versions:   1  2  3  4  5  6  7  8  9  

Terminal Aerodrome Forecast

384
FTUS42 KFFC 251416 AAA
TAFAHN
TAF AMD
KAHN 251416Z 2514/2612 11005KT P6SM SCT025 BKN045
      TEMPO 2514/2516 BKN025
     FM251600 13006KT P6SM BKN045
     FM252100 14009KT 6SM -SHRA BKN035
      TEMPO 2522/2524 3SM -TSRA BKN012CB
     FM260100 14007KT P6SM SCT025 BKN040
     FM260800 15006KT P6SM BKN009=

Latest METAR

900
SAUS70 KWBC 251700 RRA
MTRAHN
METAR KAHN 251651Z VRB06KT 10SM FEW026 OVC060 27/18 A3029 RMK AO2 SLP251
T02720183


USA.gov is the U.S. government's official web portal to all federal, state and local government web resources and services.